Arboga, California
Current Conditions -  °F | °C
As of 8:53 AM on Thursday 30 Oct 2014 (Local Time) from KMYV Reporting Station
Clear Clear  
Wind Chill: 14°   Ceiling: Unl
Heat Index: 14°   Visibility: 9mi
Dew Point: 11°   Wind: 0mph
Humidity: 81%   Direction: NA
Pressure: 29.98"   Gusts: NA
Location:  39.0904°N, 121.552°W
Report Text: KMYV 301553Z AUTO 00000KT 9SM CLR 14/11 A2998 RMK AO2 SLP155 T01390106
Loading
Personal Weather Stations






























Interactive Weather Map
Tropical Storm Tracking
New forecast layout! Learn more

10-Day Weather Forecast

Advertisements
Track Severe Weather on mobile